createdAt,value
2023-02-15T00:00:14.926Z,25.05
2023-02-15T00:02:16.491Z,25.52
2023-02-15T00:04:19.932Z,25.02
2023-02-15T00:06:21.779Z,24.42
2023-02-15T00:08:23.829Z,24.92
2023-02-15T00:10:25.425Z,27.35
2023-02-15T00:12:28.396Z,25.60
2023-02-15T00:14:30.103Z,23.90
2023-02-15T00:16:31.939Z,25.48
2023-02-15T00:18:34.248Z,24.40
2023-02-15T00:20:36.950Z,25.77
2023-02-15T00:22:38.479Z,26.52
2023-02-15T00:24:40.021Z,25.30
2023-02-15T00:26:42.747Z,23.05
2023-02-15T00:28:45.631Z,24.10
2023-02-15T00:30:47.193Z,24.58
2023-02-15T00:32:48.877Z,25.63
2023-02-15T00:34:50.670Z,24.85
2023-02-15T00:36:55.620Z,23.75
2023-02-15T00:38:57.329Z,22.17
2023-02-15T00:41:00.984Z,23.45
2023-02-15T00:43:02.550Z,25.58
2023-02-15T00:45:06.193Z,24.77
2023-02-15T00:47:07.712Z,23.98
2023-02-15T00:49:09.302Z,23.60
2023-02-15T00:51:10.831Z,24.00
2023-02-15T00:53:12.812Z,22.95
2023-02-15T00:55:14.478Z,23.25
2023-02-15T00:57:15.985Z,25.33
2023-02-15T00:59:17.567Z,24.42
2023-02-15T01:01:21.663Z,24.92
2023-02-15T01:03:23.219Z,24.15
2023-02-15T01:05:24.974Z,23.83
2023-02-15T01:07:26.581Z,24.08
2023-02-15T01:09:28.162Z,24.10
2023-02-15T01:11:29.698Z,23.98
2023-02-15T01:13:31.373Z,24.13
2023-02-15T01:15:35.570Z,21.92
2023-02-15T01:17:38.556Z,21.45
2023-02-15T01:19:40.134Z,23.10
2023-02-15T01:21:41.683Z,23.88
2023-02-15T01:23:43.464Z,21.17
2023-02-15T01:25:45.109Z,21.00
2023-02-15T01:27:47.059Z,20.40
2023-02-15T01:29:48.669Z,20.52
2023-02-15T01:31:50.332Z,20.65
2023-02-15T01:33:53.296Z,20.73
2023-02-15T01:35:58.035Z,21.30
2023-02-15T01:37:59.614Z,22.15
2023-02-15T01:40:01.714Z,21.23
2023-02-15T01:42:03.628Z,20.60
2023-02-15T01:44:38.652Z,20.40
2023-02-15T01:46:50.099Z,20.88
2023-02-15T01:48:55.907Z,21.95
2023-02-15T01:51:02.456Z,22.10
2023-02-15T01:53:09.678Z,20.85
2023-02-15T01:55:11.497Z,20.67
2023-02-15T01:57:17.646Z,20.17
2023-02-15T01:59:22.858Z,21.55
2023-02-15T02:01:26.767Z,19.67
2023-02-15T02:03:39.614Z,20.05
2023-02-15T02:05:43.290Z,19.58
2023-02-15T02:07:46.558Z,21.38
2023-02-15T02:09:48.825Z,20.50
2023-02-15T02:11:50.660Z,19.63
2023-02-15T02:13:54.587Z,19.10
2023-02-15T02:16:05.454Z,20.55
2023-02-15T02:18:22.583Z,20.00
2023-02-15T02:20:36.090Z,18.27
2023-02-15T02:23:10.402Z,23.30
2023-02-15T02:25:43.427Z,19.88
2023-02-15T02:27:50.322Z,23.05
2023-02-15T02:30:24.484Z,22.17
2023-02-15T02:33:16.751Z,22.80
2023-02-15T02:35:27.715Z,21.70
2023-02-15T02:37:38.146Z,21.52
2023-02-15T02:39:50.046Z,24.05
2023-02-15T02:41:57.314Z,23.50
2023-02-15T02:44:05.844Z,23.88
2023-02-15T02:46:14.103Z,26.23
2023-02-15T02:48:20.452Z,28.33
2023-02-15T02:50:27.213Z,24.80
2023-02-15T02:52:43.550Z,24.05
2023-02-15T02:54:45.227Z,22.38
2023-02-15T02:56:50.530Z,22.45
2023-02-15T02:58:57.701Z,21.95
2023-02-15T03:01:04.603Z,21.30
2023-02-15T03:03:10.801Z,23.42
2023-02-15T03:05:16.546Z,19.90
2023-02-15T03:07:23.629Z,22.42
2023-02-15T03:09:30.731Z,21.08
2023-02-15T03:11:32.253Z,22.40
2023-02-15T03:13:34.913Z,21.05
2023-02-15T03:15:39.939Z,22.77
2023-02-15T03:17:45.807Z,18.58
2023-02-15T03:19:51.166Z,21.17
2023-02-15T03:21:56.967Z,21.98
2023-02-15T03:24:04.132Z,23.27
2023-02-15T03:26:08.555Z,22.17
2023-02-15T03:28:13.890Z,24.40
2023-02-15T03:30:19.611Z,24.92
2023-02-15T03:32:22.728Z,25.95
2023-02-15T03:34:24.680Z,25.15
2023-02-15T03:36:37.206Z,26.10
2023-02-15T03:38:49.848Z,27.52
2023-02-15T03:40:57.729Z,26.38
2023-02-15T03:43:04.456Z,24.73
2023-02-15T03:45:10.847Z,26.95
2023-02-15T03:47:16.230Z,25.50
2023-02-15T03:49:24.001Z,24.52
2023-02-15T03:51:30.645Z,25.90
2023-02-15T03:53:32.293Z,24.20
2023-02-15T03:55:34.943Z,26.15
2023-02-15T03:57:38.424Z,25.05
2023-02-15T03:59:39.976Z,25.60
2023-02-15T04:01:49.132Z,24.20
2023-02-15T04:03:57.164Z,22.95
2023-02-15T04:05:58.732Z,22.10
2023-02-15T04:08:00.360Z,27.33
2023-02-15T04:10:04.303Z,22.48
2023-02-15T04:12:06.048Z,23.60
2023-02-15T04:14:08.953Z,21.98
2023-02-15T04:16:10.732Z,21.48
2023-02-15T04:18:12.312Z,23.05
2023-02-15T04:20:14.025Z,20.00
2023-02-15T04:22:15.580Z,21.27
2023-02-15T04:24:17.281Z,22.05
2023-02-15T04:26:21.507Z,23.30
2023-02-15T04:28:23.056Z,22.60
2023-02-15T04:30:26.698Z,22.55
2023-02-15T04:32:28.296Z,24.67
2023-02-15T04:34:29.934Z,23.33
2023-02-15T04:36:31.484Z,21.08
2023-02-15T04:38:32.987Z,22.00
2023-02-15T04:40:34.581Z,22.85
2023-02-15T04:42:36.236Z,20.38
2023-02-15T04:44:37.788Z,20.75
2023-02-15T04:46:40.768Z,17.58
2023-02-15T04:48:42.370Z,20.00
2023-02-15T04:50:44.014Z,20.90
2023-02-15T04:52:45.723Z,20.35
2023-02-15T04:54:47.404Z,20.10
2023-02-15T04:56:48.941Z,21.27
2023-02-15T04:58:50.743Z,22.17
2023-02-15T05:00:55.987Z,22.23
2023-02-15T05:02:58.910Z,23.45
2023-02-15T05:05:00.522Z,22.08
2023-02-15T05:07:02.114Z,23.25
2023-02-15T05:09:03.848Z,22.88
2023-02-15T05:11:05.420Z,24.00
2023-02-15T05:13:07.031Z,23.63
2023-02-15T05:15:09.579Z,23.42
2023-02-15T05:17:13.535Z,23.38
2023-02-15T05:19:16.600Z,23.65
2023-02-15T05:21:18.170Z,24.35
2023-02-15T05:23:19.729Z,24.15
2023-02-15T05:25:21.240Z,24.48
2023-02-15T05:27:22.744Z,23.85
2023-02-15T05:29:24.365Z,25.30
2023-02-15T05:31:26.367Z,25.73
2023-02-15T05:33:28.289Z,26.60
2023-02-15T05:35:31.496Z,26.02
2023-02-15T05:37:33.258Z,24.73
2023-02-15T05:39:34.823Z,24.67
2023-02-15T05:41:36.559Z,26.08
2023-02-15T05:43:39.169Z,26.40
2023-02-15T05:45:40.752Z,24.08
2023-02-15T05:47:42.735Z,25.20
2023-02-15T05:49:44.290Z,24.50
2023-02-15T05:51:47.299Z,25.58
2023-02-15T05:53:48.861Z,26.67
2023-02-15T05:55:50.342Z,21.00
2023-02-15T05:57:51.873Z,22.13
2023-02-15T05:59:53.577Z,22.67
2023-02-15T06:01:55.073Z,23.08
2023-02-15T06:03:56.755Z,22.58
2023-02-15T06:05:58.341Z,22.13
2023-02-15T06:08:10.928Z,21.23
2023-02-15T06:10:12.977Z,22.25
2023-02-15T06:12:14.536Z,21.88
2023-02-15T06:14:16.321Z,22.38
2023-02-15T06:16:17.851Z,20.80
2023-02-15T06:18:19.418Z,20.33
2023-02-15T06:20:20.982Z,20.70
2023-02-15T06:22:22.582Z,22.02
2023-02-15T06:24:25.560Z,22.92
2023-02-15T06:26:27.210Z,22.75
2023-02-15T06:28:28.764Z,24.58
2023-02-15T06:30:30.519Z,23.65
2023-02-15T06:32:32.315Z,24.52
2023-02-15T06:34:33.929Z,23.30
2023-02-15T06:36:35.828Z,22.70
2023-02-15T06:38:37.397Z,21.80
2023-02-15T06:40:40.301Z,22.63
2023-02-15T06:42:42.423Z,21.88
2023-02-15T06:44:44.030Z,21.63
2023-02-15T06:46:45.628Z,20.00
2023-02-15T06:48:47.330Z,22.67
2023-02-15T06:50:48.913Z,20.58
2023-02-15T06:52:50.475Z,21.52
2023-02-15T06:54:52.106Z,22.83
2023-02-15T06:56:55.233Z,22.05
2023-02-15T06:58:56.791Z,20.30
2023-02-15T07:00:58.351Z,20.30
2023-02-15T07:03:00.567Z,20.35
2023-02-15T07:05:02.262Z,22.23
2023-02-15T07:07:04.144Z,21.95
2023-02-15T07:09:05.642Z,22.67
2023-02-15T07:11:07.941Z,21.10
2023-02-15T07:13:10.909Z,20.10
2023-02-15T07:15:15.085Z,21.17
2023-02-15T07:17:35.029Z,25.13
2023-02-15T07:19:37.264Z,23.30
2023-02-15T07:21:39.095Z,21.45
2023-02-15T07:23:41.236Z,21.20
2023-02-15T07:25:42.877Z,20.90
2023-02-15T07:27:44.864Z,18.77
2023-02-15T07:29:47.743Z,20.05
2023-02-15T07:31:49.333Z,21.02
2023-02-15T07:33:50.894Z,19.75
2023-02-15T07:35:54.848Z,21.83
2023-02-15T07:37:56.465Z,21.90
2023-02-15T07:39:58.127Z,20.38
2023-02-15T07:42:00.795Z,19.85
2023-02-15T07:44:02.454Z,21.33
2023-02-15T07:46:07.162Z,19.95
2023-02-15T07:48:08.699Z,20.55
2023-02-15T07:50:10.454Z,21.67
2023-02-15T07:52:11.995Z,21.67
2023-02-15T07:54:13.544Z,20.85
2023-02-15T07:56:16.348Z,21.88
2023-02-15T07:58:17.939Z,21.92
2023-02-15T08:00:21.375Z,20.40
2023-02-15T08:02:24.315Z,23.45
2023-02-15T08:04:25.892Z,20.42
2023-02-15T08:06:29.044Z,21.58
2023-02-15T08:08:30.994Z,22.23
2023-02-15T08:10:34.084Z,22.73
2023-02-15T08:12:35.694Z,21.88
2023-02-15T08:14:37.220Z,24.25
2023-02-15T08:16:41.029Z,23.23
2023-02-15T08:18:44.000Z,23.45
2023-02-15T08:20:50.236Z,22.30
2023-02-15T08:22:51.733Z,22.00
2023-02-15T08:24:53.253Z,22.25
2023-02-15T08:26:55.071Z,23.23
2023-02-15T08:28:56.728Z,21.08
2023-02-15T08:31:05.433Z,22.98
2023-02-15T08:33:06.999Z,23.33
2023-02-15T08:35:09.868Z,23.75
2023-02-15T08:37:11.446Z,22.63
2023-02-15T08:39:14.218Z,20.65
2023-02-15T08:41:18.188Z,20.75
2023-02-15T08:43:19.786Z,20.40
2023-02-15T08:45:21.418Z,20.92
2023-02-15T08:47:22.960Z,23.00
2023-02-15T08:49:24.583Z,23.10
2023-02-15T08:51:29.990Z,22.75
2023-02-15T08:53:31.560Z,22.17
2023-02-15T08:55:33.187Z,25.02
2023-02-15T08:57:34.725Z,22.95
2023-02-15T08:59:36.444Z,23.52
2023-02-15T09:01:38.087Z,24.00
2023-02-15T09:03:40.371Z,22.25
2023-02-15T09:05:41.950Z,20.73
2023-02-15T09:07:47.193Z,21.45
2023-02-15T09:09:48.814Z,20.88
2023-02-15T09:11:56.864Z,21.40
2023-02-15T09:14:02.529Z,23.40
2023-02-15T09:16:07.017Z,22.05
2023-02-15T09:18:08.641Z,21.20
2023-02-15T09:20:10.710Z,23.65
2023-02-15T09:22:12.407Z,20.05
2023-02-15T09:24:17.386Z,20.55
2023-02-15T09:26:20.411Z,20.33
2023-02-15T09:28:22.137Z,19.92
2023-02-15T09:30:23.769Z,20.17
2023-02-15T09:32:25.553Z,20.30
2023-02-15T09:34:27.137Z,20.95
2023-02-15T09:36:30.470Z,20.20
2023-02-15T09:38:32.133Z,19.92
2023-02-15T09:40:43.225Z,20.30
2023-02-15T09:43:02.151Z,20.38
2023-02-15T09:45:27.420Z,20.52
2023-02-15T09:47:53.724Z,20.08
2023-02-15T09:50:02.600Z,20.27
2023-02-15T09:52:24.889Z,21.75
2023-02-15T09:54:38.557Z,21.40
2023-02-15T09:56:49.054Z,21.40
2023-02-15T09:58:59.780Z,22.25
2023-02-15T10:01:09.362Z,22.52
2023-02-15T10:03:35.015Z,22.08
2023-02-15T10:05:46.824Z,21.10
2023-02-15T10:08:18.386Z,23.50
2023-02-15T10:10:28.666Z,23.13
2023-02-15T10:12:57.500Z,22.67
2023-02-15T10:15:26.707Z,21.90
2023-02-15T10:17:51.467Z,20.20
2023-02-15T10:20:04.761Z,22.75
2023-02-15T10:22:20.534Z,21.48
2023-02-15T10:24:42.108Z,22.33
2023-02-15T10:26:47.289Z,21.15
2023-02-15T10:28:52.181Z,22.35
2023-02-15T10:31:03.803Z,22.92
2023-02-15T10:33:15.218Z,22.10
2023-02-15T10:35:25.637Z,21.40
2023-02-15T10:37:47.550Z,25.88
2023-02-15T10:39:59.628Z,25.98
2023-02-15T10:42:11.852Z,25.38
2023-02-15T10:44:28.715Z,23.48
2023-02-15T10:46:56.698Z,21.42
2023-02-15T10:49:24.219Z,24.23
2023-02-15T10:51:37.193Z,22.55
2023-02-15T10:54:02.325Z,25.63
2023-02-15T10:56:13.171Z,26.05
2023-02-15T10:58:23.605Z,26.20
2023-02-15T11:00:38.372Z,23.27
2023-02-15T11:02:54.754Z,24.73
2023-02-15T11:05:03.951Z,24.13
2023-02-15T11:07:12.524Z,24.35
2023-02-15T11:09:15.322Z,28.00
2023-02-15T11:11:22.440Z,28.15
2023-02-15T11:13:28.888Z,29.35
2023-02-15T11:15:36.275Z,28.30
2023-02-15T11:17:42.394Z,27.80
2023-02-15T11:19:53.867Z,26.75
2023-02-15T11:22:00.136Z,24.15
2023-02-15T11:24:01.779Z,25.52
2023-02-15T11:26:07.106Z,25.30
2023-02-15T11:28:18.096Z,27.35
2023-02-15T11:30:22.498Z,26.60
2023-02-15T11:32:29.183Z,26.88
2023-02-15T11:34:35.553Z,26.50
2023-02-15T11:36:41.125Z,23.20
2023-02-15T11:38:42.719Z,26.63
2023-02-15T11:40:49.492Z,25.95
2023-02-15T11:42:54.561Z,30.75
2023-02-15T11:45:03.248Z,25.90
2023-02-15T11:47:11.179Z,28.67
2023-02-15T11:49:23.643Z,26.80
2023-02-15T11:51:26.497Z,27.88
2023-02-15T11:53:32.915Z,29.20
2023-02-15T11:55:34.481Z,27.17
2023-02-15T11:57:40.077Z,29.60
2023-02-15T11:59:47.381Z,26.63
2023-02-15T12:01:49.045Z,26.63
2023-02-15T12:03:53.306Z,27.75
2023-02-15T12:06:01.196Z,26.73
2023-02-15T12:08:10.339Z,28.20
2023-02-15T12:10:21.122Z,29.60
2023-02-15T12:12:25.791Z,28.25
2023-02-15T12:14:32.090Z,28.58
2023-02-15T12:16:41.564Z,29.17
2023-02-15T12:18:45.800Z,30.15
2023-02-15T12:20:47.698Z,30.20
2023-02-15T12:22:54.026Z,29.70
2023-02-15T12:24:57.747Z,32.75
2023-02-15T12:27:03.715Z,30.85
2023-02-15T12:29:13.999Z,32.25
2023-02-15T12:31:22.988Z,34.35
2023-02-15T12:33:30.695Z,30.67
2023-02-15T12:35:34.509Z,31.00
2023-02-15T12:37:36.244Z,31.17
2023-02-15T12:39:53.065Z,31.80
2023-02-15T12:42:02.770Z,31.00
2023-02-15T12:44:07.452Z,31.67
2023-02-15T12:46:29.847Z,30.25
2023-02-15T12:48:31.512Z,28.90
2023-02-15T12:50:36.239Z,29.50
2023-02-15T12:52:37.879Z,29.30
2023-02-15T12:54:42.836Z,32.50
2023-02-15T12:56:44.497Z,29.70
2023-02-15T12:58:46.101Z,30.02
2023-02-15T13:00:47.985Z,28.08
2023-02-15T13:02:52.462Z,29.40
2023-02-15T13:04:56.279Z,28.75
2023-02-15T13:07:02.021Z,37.15
2023-02-15T13:09:15.896Z,29.45
2023-02-15T13:11:25.680Z,29.00
2023-02-15T13:13:29.742Z,28.65
2023-02-15T13:15:36.397Z,31.08
2023-02-15T13:17:37.994Z,30.38
2023-02-15T13:19:43.081Z,29.38
2023-02-15T13:21:47.096Z,32.75
2023-02-15T13:23:52.987Z,32.03
2023-02-15T13:25:56.649Z,31.23
2023-02-15T13:28:03.214Z,31.77
2023-02-15T13:30:17.644Z,30.55
2023-02-15T13:32:27.676Z,30.45
2023-02-15T13:34:33.881Z,29.38
2023-02-15T13:36:42.144Z,31.23
2023-02-15T13:38:50.149Z,30.90
2023-02-15T13:40:56.229Z,33.65
2023-02-15T13:43:11.382Z,30.27
2023-02-15T13:45:28.255Z,31.45
2023-02-15T13:47:39.098Z,30.95
2023-02-15T13:49:53.350Z,32.03
2023-02-15T13:52:05.380Z,31.23
2023-02-15T13:54:33.511Z,32.10
2023-02-15T13:56:47.938Z,30.13
2023-02-15T13:59:30.045Z,28.85
2023-02-15T14:01:38.909Z,29.15
2023-02-15T14:04:10.922Z,30.48
2023-02-15T14:06:46.837Z,30.88
2023-02-15T14:09:02.832Z,29.25
2023-02-15T14:11:13.385Z,29.80
2023-02-15T14:13:50.278Z,30.75
2023-02-15T14:15:57.834Z,30.35
2023-02-15T14:18:10.242Z,32.75
2023-02-15T14:20:22.855Z,30.90
2023-02-15T14:22:32.511Z,30.40
2023-02-15T14:24:40.395Z,32.35
2023-02-15T14:26:50.973Z,31.88
2023-02-15T14:29:04.416Z,31.27
2023-02-15T14:31:12.175Z,30.80
2023-02-15T14:33:36.871Z,31.08
2023-02-15T14:35:41.028Z,32.15
2023-02-15T14:37:46.839Z,32.20
2023-02-15T14:39:56.638Z,33.00
2023-02-15T14:42:03.492Z,32.20
2023-02-15T14:44:13.890Z,31.58
2023-02-15T14:46:26.502Z,34.08
2023-02-15T14:48:34.213Z,33.17
2023-02-15T14:50:43.332Z,31.50
2023-02-15T14:53:16.389Z,30.98
2023-02-15T14:55:35.849Z,32.00
2023-02-15T14:57:37.739Z,30.80
2023-02-15T14:59:43.884Z,33.85
2023-02-15T15:01:57.731Z,30.48
2023-02-15T15:04:03.271Z,31.73
2023-02-15T15:06:06.257Z,32.90
2023-02-15T15:08:26.312Z,30.85
2023-02-15T15:10:39.952Z,31.35
2023-02-15T15:12:41.628Z,32.05
2023-02-15T15:14:43.982Z,34.20
2023-02-15T15:16:51.430Z,30.25
2023-02-15T15:18:54.479Z,32.45
2023-02-15T15:20:56.363Z,32.97
2023-02-15T15:23:31.166Z,31.48
2023-02-15T15:25:44.292Z,31.73
2023-02-15T15:27:51.452Z,35.05
2023-02-15T15:29:53.142Z,31.40
2023-02-15T15:32:00.036Z,33.55
2023-02-15T15:34:50.180Z,30.15
2023-02-15T15:37:27.689Z,31.20
2023-02-15T15:40:04.500Z,30.42
2023-02-15T15:42:14.068Z,31.55
2023-02-15T15:44:59.968Z,32.45
2023-02-15T15:47:25.286Z,30.70
2023-02-15T15:49:31.378Z,34.78
2023-02-15T15:51:34.514Z,31.25
2023-02-15T15:53:40.762Z,32.92
2023-02-15T15:55:47.745Z,32.10
2023-02-15T15:57:53.038Z,34.70
2023-02-15T15:59:55.830Z,33.17
2023-02-15T16:02:04.371Z,31.88
2023-02-15T16:04:06.073Z,32.13
2023-02-15T16:06:14.354Z,33.28
2023-02-15T16:08:30.788Z,33.40
2023-02-15T16:10:34.359Z,33.13
2023-02-15T16:12:40.487Z,31.90
2023-02-15T16:14:43.181Z,31.08
2023-02-15T16:16:50.417Z,32.33
2023-02-15T16:18:52.985Z,31.58
2023-02-15T16:20:56.366Z,31.38
2023-02-15T16:23:10.574Z,32.10
2023-02-15T16:25:30.556Z,30.25
2023-02-15T16:27:41.315Z,31.20
2023-02-15T16:29:43.035Z,32.25
2023-02-15T16:31:56.765Z,30.60
2023-02-15T16:33:58.374Z,31.27
2023-02-15T16:36:00.636Z,33.25
2023-02-15T16:38:02.987Z,33.05
2023-02-15T16:40:05.653Z,31.80
2023-02-15T16:42:07.533Z,34.72
2023-02-15T16:44:17.027Z,33.80
2023-02-15T16:46:24.486Z,29.60
2023-02-15T16:48:27.441Z,31.50
2023-02-15T16:50:33.768Z,31.75
2023-02-15T16:52:35.509Z,31.08
2023-02-15T16:54:37.520Z,31.73
2023-02-15T16:56:39.141Z,31.85
2023-02-15T16:58:43.908Z,33.58
2023-02-15T17:00:47.193Z,31.85
2023-02-15T17:02:58.734Z,31.35
2023-02-15T17:05:14.572Z,41.33
2023-02-15T17:07:18.323Z,32.65
2023-02-15T17:09:21.419Z,32.22
2023-02-15T17:11:33.689Z,36.17
2023-02-15T17:13:35.509Z,34.88
2023-02-15T17:15:38.429Z,31.40
2023-02-15T17:17:41.511Z,32.50
2023-02-15T17:19:49.378Z,33.05
2023-02-15T17:21:53.930Z,31.55
2023-02-15T17:23:59.281Z,30.63
2023-02-15T17:26:11.487Z,31.27
2023-02-15T17:28:18.773Z,31.63
2023-02-15T17:30:27.805Z,31.38
2023-02-15T17:32:33.142Z,34.97
2023-02-15T17:34:49.730Z,30.98
2023-02-15T17:36:59.231Z,38.97
2023-02-15T17:39:05.608Z,36.22
2023-02-15T17:41:08.295Z,35.10
2023-02-15T17:43:10.084Z,34.13
2023-02-15T17:45:13.654Z,33.67
2023-02-15T17:47:21.353Z,32.08
2023-02-15T17:49:25.672Z,31.48
2023-02-15T17:51:28.764Z,33.97
2023-02-15T17:53:30.967Z,33.63
2023-02-15T17:55:32.543Z,33.05
2023-02-15T17:57:34.119Z,31.05
2023-02-15T17:59:35.702Z,31.23
2023-02-15T18:01:42.913Z,35.50
2023-02-15T18:03:48.520Z,34.50
2023-02-15T18:05:50.261Z,34.58
2023-02-15T18:07:53.190Z,31.17
2023-02-15T18:09:55.053Z,34.42
2023-02-15T18:11:57.182Z,33.25
2023-02-15T18:13:59.090Z,34.65
2023-02-15T18:16:00.702Z,32.88
2023-02-15T18:18:02.502Z,36.05
2023-02-15T18:20:07.306Z,36.65
2023-02-15T18:22:10.957Z,34.05
2023-02-15T18:24:20.048Z,33.22
2023-02-15T18:26:24.465Z,34.78
2023-02-15T18:28:26.251Z,34.53
2023-02-15T18:30:28.056Z,34.67
2023-02-15T18:32:35.164Z,33.88
2023-02-15T18:34:39.750Z,36.53
2023-02-15T18:36:44.874Z,36.25
2023-02-15T18:38:46.484Z,48.10
2023-02-15T18:40:49.765Z,48.42
2023-02-15T18:42:51.568Z,47.85
2023-02-15T18:44:56.401Z,45.65
2023-02-15T18:46:58.151Z,43.95
2023-02-15T18:48:59.692Z,45.40
2023-02-15T18:51:01.900Z,40.30
2023-02-15T18:53:04.880Z,41.90
2023-02-15T18:55:16.756Z,45.58
2023-02-15T18:57:19.983Z,46.42
2023-02-15T18:59:22.215Z,45.03
2023-02-15T19:01:23.779Z,44.45
2023-02-15T19:03:25.402Z,44.88
2023-02-15T19:05:29.321Z,45.63
2023-02-15T19:07:32.373Z,43.28
2023-02-15T19:09:33.999Z,45.25
2023-02-15T19:11:35.584Z,51.10
2023-02-15T19:13:38.445Z,48.15
2023-02-15T19:15:41.160Z,49.33
2023-02-15T19:17:42.814Z,46.42
2023-02-15T19:19:44.911Z,50.78
2023-02-15T19:21:46.710Z,48.83
2023-02-15T19:23:54.148Z,44.38
2023-02-15T19:25:55.886Z,45.72
2023-02-15T19:27:58.497Z,47.95
2023-02-15T19:30:04.000Z,55.47
2023-02-15T19:32:05.755Z,52.90
2023-02-15T19:34:15.024Z,55.25
2023-02-15T19:36:18.078Z,56.33
2023-02-15T19:38:22.320Z,50.15
2023-02-15T19:40:26.785Z,46.15
2023-02-15T19:42:29.078Z,45.10
2023-02-15T19:44:30.710Z,44.47
2023-02-15T19:46:33.703Z,44.35
2023-02-15T19:48:35.306Z,44.80
2023-02-15T19:50:36.984Z,52.03
2023-02-15T19:52:38.782Z,48.40
2023-02-15T19:54:40.445Z,45.75
2023-02-15T19:56:42.011Z,53.78
2023-02-15T19:58:43.574Z,83.40
2023-02-15T20:00:46.235Z,61.00
2023-02-15T20:02:49.380Z,58.47
2023-02-15T20:04:50.985Z,47.58
2023-02-15T20:06:55.801Z,43.28
2023-02-15T20:08:57.455Z,43.85
2023-02-15T20:10:59.109Z,39.67
2023-02-15T20:13:01.480Z,40.42
2023-02-15T20:15:17.675Z,32.88
2023-02-15T20:17:19.493Z,36.20
2023-02-15T20:19:22.586Z,44.47
2023-02-15T20:21:24.154Z,47.03
2023-02-15T20:23:30.874Z,55.80
2023-02-15T20:25:33.384Z,55.67
2023-02-15T20:27:34.915Z,55.47
2023-02-15T20:29:36.452Z,49.95
2023-02-15T20:31:38.213Z,61.38
2023-02-15T20:33:39.806Z,53.05
2023-02-15T20:35:44.105Z,50.30
2023-02-15T20:37:47.712Z,50.15
2023-02-15T20:39:50.550Z,50.85
2023-02-15T20:41:52.196Z,52.47
2023-02-15T20:43:53.866Z,55.88
2023-02-15T20:45:55.499Z,44.85
2023-02-15T20:47:57.675Z,38.85
2023-02-15T20:49:59.326Z,44.33
2023-02-15T20:52:03.600Z,40.58
2023-02-15T20:54:12.281Z,45.15
2023-02-15T20:56:17.951Z,41.55
2023-02-15T20:58:22.306Z,40.92
2023-02-15T21:00:29.038Z,38.22
2023-02-15T21:02:30.885Z,38.25
2023-02-15T21:04:33.753Z,37.80
2023-02-15T21:06:35.304Z,35.10
2023-02-15T21:08:38.464Z,36.90
2023-02-15T21:10:41.056Z,35.15
2023-02-15T21:12:43.764Z,35.80
2023-02-15T21:14:45.855Z,31.08
2023-02-15T21:16:48.697Z,31.40
2023-02-15T21:18:50.414Z,34.58
2023-02-15T21:20:54.615Z,32.22
2023-02-15T21:22:59.144Z,32.53
2023-02-15T21:25:02.841Z,34.10
2023-02-15T21:27:06.835Z,36.38
2023-02-15T21:29:13.176Z,36.80
2023-02-15T21:31:16.887Z,38.38
2023-02-15T21:33:19.444Z,39.30
2023-02-15T21:35:21.039Z,45.72
2023-02-15T21:37:29.459Z,43.10
2023-02-15T21:39:35.455Z,41.65
2023-02-15T21:41:38.551Z,41.90
2023-02-15T21:43:40.059Z,41.13
2023-02-15T21:45:41.648Z,42.53
2023-02-15T21:47:43.242Z,45.47
2023-02-15T21:49:44.805Z,41.63
2023-02-15T21:51:48.079Z,40.28
2023-02-15T21:53:49.786Z,39.92
2023-02-15T21:55:53.203Z,35.35
2023-02-15T21:57:56.120Z,35.15
2023-02-15T21:59:57.601Z,32.35
2023-02-15T22:01:59.221Z,34.50
2023-02-15T22:04:00.816Z,35.47
2023-02-15T22:06:03.538Z,34.30
2023-02-15T22:08:10.949Z,34.60
2023-02-15T22:10:12.707Z,35.53
2023-02-15T22:12:16.108Z,36.63
2023-02-15T22:14:34.650Z,36.13
2023-02-15T22:16:37.451Z,35.53
2023-02-15T22:18:39.029Z,35.58
2023-02-15T22:20:40.608Z,33.88
2023-02-15T22:22:42.154Z,33.10
2023-02-15T22:24:44.482Z,34.90
2023-02-15T22:26:46.225Z,35.63
2023-02-15T22:28:48.296Z,36.17
2023-02-15T22:30:51.447Z,33.75
2023-02-15T22:32:53.316Z,33.28
2023-02-15T22:34:55.127Z,35.42
2023-02-15T22:36:57.580Z,35.35
2023-02-15T22:38:59.151Z,37.72
2023-02-15T22:41:03.867Z,39.53
2023-02-15T22:43:10.853Z,34.08
2023-02-15T22:45:17.196Z,35.78
2023-02-15T22:47:22.906Z,37.22
2023-02-15T22:49:24.540Z,38.70
2023-02-15T22:51:26.297Z,36.15
2023-02-15T22:53:27.930Z,35.10
2023-02-15T22:55:32.475Z,37.00
2023-02-15T22:57:38.378Z,35.60
2023-02-15T22:59:40.234Z,36.22
2023-02-15T23:01:41.911Z,37.00
2023-02-15T23:03:44.940Z,33.65
2023-02-15T23:05:46.736Z,34.15
2023-02-15T23:07:49.412Z,32.65
2023-02-15T23:09:51.000Z,34.63
2023-02-15T23:11:53.846Z,32.45
2023-02-15T23:13:55.532Z,30.85
2023-02-15T23:15:58.837Z,31.58
2023-02-15T23:18:14.990Z,30.17
2023-02-15T23:20:18.168Z,33.33
2023-02-15T23:22:19.750Z,32.60
2023-02-15T23:24:23.023Z,30.23
2023-02-15T23:26:26.103Z,29.48
2023-02-15T23:28:30.312Z,33.58
2023-02-15T23:30:31.982Z,34.80
2023-02-15T23:32:33.612Z,33.58
2023-02-15T23:34:35.310Z,32.13
2023-02-15T23:36:41.148Z,33.22
2023-02-15T23:38:42.878Z,30.50
2023-02-15T23:40:48.633Z,30.92
2023-02-15T23:42:50.289Z,30.58
2023-02-15T23:44:52.130Z,32.60
2023-02-15T23:46:53.775Z,31.08
2023-02-15T23:48:56.515Z,28.90
2023-02-15T23:50:58.731Z,30.60
2023-02-15T23:53:01.709Z,31.05
2023-02-15T23:55:03.298Z,29.60
2023-02-15T23:57:04.982Z,29.17
2023-02-15T23:59:07.445Z,28.95
